createdAt,value
2022-08-19T00:01:29.222Z,15.35
2022-08-19T00:04:21.709Z,14.93
2022-08-19T00:07:09.794Z,14.73
2022-08-19T00:09:57.177Z,14.68
2022-08-19T00:12:49.930Z,14.25
2022-08-19T00:15:36.999Z,15.20
2022-08-19T00:18:25.795Z,14.70
2022-08-19T00:21:13.113Z,15.10
2022-08-19T00:24:01.088Z,14.43
2022-08-19T00:26:48.460Z,14.00
2022-08-19T00:29:35.721Z,13.82
2022-08-19T00:32:23.932Z,14.13
2022-08-19T00:35:12.710Z,14.00
2022-08-19T00:38:00.627Z,14.38
2022-08-19T00:40:48.463Z,14.77
2022-08-19T00:43:36.227Z,16.77
2022-08-19T00:46:23.701Z,14.63
2022-08-19T00:49:17.626Z,14.60
2022-08-19T00:52:11.138Z,15.90
2022-08-19T00:55:00.229Z,17.65
2022-08-19T00:57:56.522Z,16.27
2022-08-19T01:00:44.158Z,17.30
2022-08-19T01:03:57.170Z,17.10
2022-08-19T01:06:40.446Z,17.00
2022-08-19T01:09:29.269Z,15.10
2022-08-19T01:12:17.559Z,14.80
2022-08-19T01:15:06.180Z,14.55
2022-08-19T01:17:54.293Z,14.50
2022-08-19T01:20:44.843Z,15.60
2022-08-19T01:23:44.473Z,15.02
2022-08-19T01:26:32.214Z,14.50
2022-08-19T01:29:19.985Z,15.75
2022-08-19T01:32:10.318Z,16.90
2022-08-19T01:35:19.300Z,16.08
2022-08-19T01:38:12.562Z,15.60
2022-08-19T01:41:01.531Z,14.77
2022-08-19T01:44:13.385Z,15.77
2022-08-19T01:47:05.210Z,14.73
2022-08-19T01:49:52.264Z,14.35
2022-08-19T01:52:40.493Z,14.57
2022-08-19T01:55:27.779Z,15.18
2022-08-19T01:58:22.587Z,16.13
2022-08-19T02:01:10.868Z,14.82
2022-08-19T02:03:57.819Z,13.85
2022-08-19T02:06:45.497Z,15.05
2022-08-19T02:09:34.849Z,15.73
2022-08-19T02:12:21.954Z,16.05
2022-08-19T02:15:11.795Z,15.80
2022-08-19T02:17:59.327Z,15.80
2022-08-19T02:20:48.056Z,15.32
2022-08-19T02:23:35.408Z,16.50
2022-08-19T02:26:22.521Z,15.15
2022-08-19T02:29:10.106Z,16.35
2022-08-19T02:31:59.186Z,15.82
2022-08-19T02:34:46.620Z,15.43
2022-08-19T02:37:51.157Z,16.42
2022-08-19T02:40:38.837Z,16.52
2022-08-19T02:43:27.092Z,16.08
2022-08-19T02:46:18.771Z,16.10
2022-08-19T02:49:10.193Z,16.52
2022-08-19T02:51:57.753Z,16.27
2022-08-19T02:54:45.183Z,15.98
2022-08-19T02:57:33.730Z,16.58
2022-08-19T03:00:21.752Z,16.52
2022-08-19T03:03:08.869Z,16.67
2022-08-19T03:06:12.873Z,16.60
2022-08-19T03:09:00.511Z,16.08
2022-08-19T03:11:48.553Z,16.52
2022-08-19T03:14:38.509Z,15.05
2022-08-19T03:17:25.582Z,14.63
2022-08-19T03:20:13.423Z,14.93
2022-08-19T03:23:01.937Z,16.00
2022-08-19T03:26:02.765Z,15.98
2022-08-19T03:29:00.023Z,16.27
2022-08-19T03:31:53.061Z,16.15
2022-08-19T03:34:41.421Z,15.68
2022-08-19T03:37:29.528Z,15.80
2022-08-19T03:40:19.995Z,17.42
2022-08-19T03:43:07.556Z,17.40
2022-08-19T03:46:05.202Z,16.13
2022-08-19T03:48:56.575Z,17.20
2022-08-19T03:51:45.320Z,16.92
2022-08-19T03:54:32.807Z,17.10
2022-08-19T03:57:21.787Z,15.80
2022-08-19T04:00:19.581Z,16.45
2022-08-19T04:03:07.042Z,16.85
2022-08-19T04:05:54.443Z,16.50
2022-08-19T04:08:42.820Z,16.50
2022-08-19T04:11:42.771Z,15.52
2022-08-19T04:14:34.825Z,15.98
2022-08-19T04:17:23.290Z,16.42
2022-08-19T04:20:11.256Z,16.75
2022-08-19T04:22:59.531Z,15.50
2022-08-19T04:25:47.199Z,16.00
2022-08-19T04:28:35.391Z,16.35
2022-08-19T04:31:27.252Z,16.42
2022-08-19T04:34:17.839Z,16.10
2022-08-19T04:37:12.727Z,16.85
2022-08-19T04:40:17.694Z,16.55
2022-08-19T04:43:04.810Z,16.30
2022-08-19T04:45:52.840Z,17.13
2022-08-19T04:48:49.563Z,16.58
2022-08-19T04:51:37.925Z,16.83
2022-08-19T04:54:38.625Z,17.20
2022-08-19T04:57:27.250Z,16.00
2022-08-19T05:00:15.329Z,16.55
2022-08-19T05:03:03.172Z,15.85
2022-08-19T05:05:56.239Z,17.45
2022-08-19T05:08:45.398Z,16.60
2022-08-19T05:11:40.107Z,17.38
2022-08-19T05:14:27.653Z,15.35
2022-08-19T05:17:34.914Z,15.45
2022-08-19T05:20:40.034Z,15.80
2022-08-19T05:23:28.644Z,14.82
2022-08-19T05:26:15.711Z,16.55
2022-08-19T05:29:03.243Z,15.20
2022-08-19T05:31:51.659Z,17.92
2022-08-19T05:34:40.187Z,16.45
2022-08-19T05:37:28.689Z,16.75
2022-08-19T05:40:17.796Z,16.27
2022-08-19T05:43:06.737Z,16.85
2022-08-19T05:45:53.814Z,16.52
2022-08-19T05:48:40.962Z,16.83
2022-08-19T05:51:29.279Z,18.02
2022-08-19T05:54:17.444Z,17.17
2022-08-19T05:57:06.202Z,16.83
2022-08-19T05:59:58.713Z,16.80
2022-08-19T06:02:46.365Z,17.42
2022-08-19T06:05:34.163Z,16.38
2022-08-19T06:08:37.312Z,16.58
2022-08-19T06:11:34.314Z,16.38
2022-08-19T06:14:29.452Z,16.63
2022-08-19T06:17:17.022Z,17.35
2022-08-19T06:20:08.089Z,16.23
2022-08-19T06:22:55.427Z,15.15
2022-08-19T06:25:42.775Z,15.80
2022-08-19T06:28:30.239Z,16.27
2022-08-19T06:31:23.023Z,15.77
2022-08-19T06:34:10.178Z,15.52
2022-08-19T06:37:02.336Z,15.30
2022-08-19T06:39:50.833Z,15.60
2022-08-19T06:42:39.366Z,15.27
2022-08-19T06:45:34.608Z,14.20
2022-08-19T06:48:23.891Z,13.88
2022-08-19T06:51:16.502Z,13.15
2022-08-19T06:54:07.369Z,14.80
2022-08-19T06:57:08.339Z,14.45
2022-08-19T06:59:57.555Z,16.17
2022-08-19T07:02:49.789Z,14.18
2022-08-19T07:05:45.624Z,14.02
2022-08-19T07:08:35.018Z,13.60
2022-08-19T07:11:22.213Z,12.35
2022-08-19T07:14:19.314Z,12.77
2022-08-19T07:17:10.858Z,12.50
2022-08-19T07:19:58.432Z,13.02
2022-08-19T07:22:54.582Z,12.13
2022-08-19T07:25:43.614Z,12.73
2022-08-19T07:28:31.058Z,12.98
2022-08-19T07:31:23.844Z,12.38
2022-08-19T07:34:15.720Z,12.85
2022-08-19T07:37:04.790Z,11.32
2022-08-19T07:39:53.363Z,10.48
2022-08-19T07:42:40.674Z,11.30
2022-08-19T07:45:28.345Z,11.20
2022-08-19T07:48:15.411Z,9.48
2022-08-19T07:51:06.439Z,10.68
2022-08-19T07:53:53.906Z,10.10
2022-08-19T07:56:42.695Z,10.88
2022-08-19T07:59:31.134Z,10.05
2022-08-19T08:02:18.808Z,9.60
2022-08-19T08:05:24.469Z,9.27
2022-08-19T08:08:37.278Z,8.85
2022-08-19T08:11:31.807Z,9.32
2022-08-19T08:14:29.043Z,10.43
2022-08-19T08:17:34.963Z,10.05
2022-08-19T08:20:26.717Z,8.88
2022-08-19T08:23:27.301Z,9.48
2022-08-19T08:26:16.026Z,9.73
2022-08-19T08:29:12.337Z,9.77
2022-08-19T08:32:01.345Z,9.93
2022-08-19T08:34:51.696Z,9.05
2022-08-19T08:37:40.762Z,9.82
2022-08-19T08:40:33.036Z,9.55
2022-08-19T08:43:32.458Z,8.15
2022-08-19T08:46:30.507Z,10.18
2022-08-19T08:49:31.837Z,9.77
2022-08-19T08:52:24.913Z,8.18
2022-08-19T08:55:25.025Z,8.05
2022-08-19T08:58:18.280Z,11.30
2022-08-19T09:01:05.692Z,8.90
2022-08-19T09:03:53.690Z,8.25
2022-08-19T09:06:54.305Z,9.30
2022-08-19T09:09:44.740Z,7.80
2022-08-19T09:12:42.850Z,7.95
2022-08-19T09:15:36.815Z,7.32
2022-08-19T09:18:24.252Z,6.40
2022-08-19T09:21:12.468Z,6.88
2022-08-19T09:24:00.956Z,6.22
2022-08-19T09:26:52.831Z,7.15
2022-08-19T09:29:40.249Z,7.50
2022-08-19T09:32:28.559Z,7.75
2022-08-19T09:35:16.936Z,6.88
2022-08-19T09:38:04.410Z,7.10
2022-08-19T09:40:53.009Z,6.47
2022-08-19T09:43:44.151Z,7.72
2022-08-19T09:46:32.778Z,6.93
2022-08-19T09:49:22.710Z,7.95
2022-08-19T09:52:13.616Z,7.22
2022-08-19T09:55:00.994Z,8.93
2022-08-19T09:57:57.681Z,8.27
2022-08-19T10:00:46.693Z,7.38
2022-08-19T10:03:39.282Z,7.00
2022-08-19T10:06:46.419Z,6.82
2022-08-19T10:09:35.138Z,8.05
2022-08-19T10:12:23.165Z,7.30
2022-08-19T10:15:15.762Z,7.32
2022-08-19T10:18:03.425Z,6.22
2022-08-19T10:20:56.007Z,5.45
2022-08-19T10:23:46.643Z,6.10
2022-08-19T10:26:37.237Z,6.30
2022-08-19T10:29:32.758Z,5.95
2022-08-19T10:32:34.170Z,5.88
2022-08-19T10:35:22.212Z,9.43
2022-08-19T10:38:10.446Z,6.05
2022-08-19T10:40:58.194Z,5.13
2022-08-19T10:43:46.165Z,5.93
2022-08-19T10:46:35.271Z,6.15
2022-08-19T10:49:25.207Z,6.70
2022-08-19T10:52:32.491Z,6.78
2022-08-19T10:55:41.175Z,5.78
2022-08-19T10:58:28.468Z,5.82
2022-08-19T11:01:15.956Z,6.18
2022-08-19T11:04:04.692Z,6.25
2022-08-19T11:06:53.609Z,6.05
2022-08-19T11:09:43.809Z,5.53
2022-08-19T11:12:30.968Z,5.45
2022-08-19T11:15:18.158Z,6.10
2022-08-19T11:18:06.656Z,5.97
2022-08-19T11:21:09.664Z,5.85
2022-08-19T11:24:01.411Z,5.45
2022-08-19T11:26:50.729Z,7.10
2022-08-19T11:29:40.046Z,6.85
2022-08-19T11:32:27.333Z,24.30
2022-08-19T11:35:14.581Z,7.63
2022-08-19T11:38:05.463Z,7.43
2022-08-19T11:41:03.716Z,7.50
2022-08-19T11:43:53.969Z,8.13
2022-08-19T11:46:41.805Z,8.07
2022-08-19T11:49:29.247Z,7.32
2022-08-19T11:52:16.779Z,7.38
2022-08-19T11:55:05.013Z,7.75
2022-08-19T11:57:53.731Z,7.80
2022-08-19T12:00:42.307Z,7.50
2022-08-19T12:03:30.597Z,7.90
2022-08-19T12:06:25.008Z,7.90
2022-08-19T12:09:13.286Z,8.05
2022-08-19T12:12:00.455Z,8.55
2022-08-19T12:14:57.971Z,7.30
2022-08-19T12:17:46.131Z,8.07
2022-08-19T12:20:33.469Z,8.65
2022-08-19T12:23:24.110Z,7.68
2022-08-19T12:26:12.583Z,7.72
2022-08-19T12:29:01.271Z,9.40
2022-08-19T12:31:50.018Z,9.35
2022-08-19T12:34:38.852Z,8.52
2022-08-19T12:37:26.383Z,10.73
2022-08-19T12:40:14.889Z,9.65
2022-08-19T12:43:02.239Z,9.25
2022-08-19T12:45:49.538Z,10.20
2022-08-19T12:48:39.910Z,11.10
2022-08-19T12:51:27.982Z,10.45
2022-08-19T12:54:15.889Z,29.67
2022-08-19T12:57:06.641Z,10.88
2022-08-19T12:59:55.680Z,10.57
2022-08-19T13:02:48.076Z,10.75
2022-08-19T13:05:36.637Z,10.13
2022-08-19T13:08:24.185Z,9.15
2022-08-19T13:11:16.003Z,9.02
2022-08-19T13:14:04.843Z,8.73
2022-08-19T13:16:51.940Z,8.40
2022-08-19T13:19:41.029Z,8.65
2022-08-19T13:22:30.110Z,9.27
2022-08-19T13:25:20.517Z,8.27
2022-08-19T13:28:08.074Z,8.98
2022-08-19T13:31:17.424Z,7.55
2022-08-19T13:34:05.577Z,7.35
2022-08-19T13:36:54.982Z,7.70
2022-08-19T13:39:46.097Z,7.32
2022-08-19T13:42:33.917Z,7.45
2022-08-19T13:45:24.077Z,6.45
2022-08-19T13:48:11.264Z,6.45
2022-08-19T13:50:59.595Z,6.30
2022-08-19T13:53:48.160Z,5.90
2022-08-19T13:56:42.505Z,6.05
2022-08-19T13:59:29.790Z,6.32
2022-08-19T14:02:17.374Z,6.78
2022-08-19T14:05:05.947Z,6.38
2022-08-19T14:07:53.776Z,6.93
2022-08-19T14:10:43.685Z,6.75
2022-08-19T14:13:34.662Z,6.72
2022-08-19T14:16:22.697Z,6.43
2022-08-19T14:19:09.892Z,6.55
2022-08-19T14:21:59.233Z,6.57
2022-08-19T14:24:48.305Z,6.80
2022-08-19T14:27:36.094Z,6.43
2022-08-19T14:30:28.559Z,6.72
2022-08-19T14:33:15.877Z,7.25
2022-08-19T14:36:03.197Z,7.05
2022-08-19T14:38:51.076Z,7.05
2022-08-19T14:41:38.573Z,6.57
2022-08-19T14:44:25.882Z,6.47
2022-08-19T14:47:14.869Z,7.05
2022-08-19T14:50:05.166Z,7.55
2022-08-19T14:53:00.160Z,7.53
2022-08-19T14:55:48.753Z,6.85
2022-08-19T14:58:38.915Z,6.82
2022-08-19T15:01:26.545Z,6.93
2022-08-19T15:04:15.498Z,6.50
2022-08-19T15:07:05.265Z,6.70
2022-08-19T15:09:52.908Z,6.80
2022-08-19T15:12:41.882Z,6.47
2022-08-19T15:15:29.171Z,6.55
2022-08-19T15:18:16.890Z,6.85
2022-08-19T15:21:06.241Z,6.82
2022-08-19T15:23:53.918Z,6.75
2022-08-19T15:26:41.249Z,7.03
2022-08-19T15:29:28.822Z,6.00
2022-08-19T15:32:16.098Z,6.68
2022-08-19T15:35:04.237Z,5.70
2022-08-19T15:37:54.478Z,6.00
2022-08-19T15:40:42.792Z,6.43
2022-08-19T15:43:30.359Z,6.53
2022-08-19T15:46:19.755Z,6.57
2022-08-19T15:49:08.318Z,5.55
2022-08-19T15:51:57.864Z,5.80
2022-08-19T15:54:46.875Z,5.68
2022-08-19T15:57:51.422Z,5.60
2022-08-19T16:00:55.900Z,5.43
2022-08-19T16:04:00.681Z,5.43
2022-08-19T16:06:50.296Z,5.20
2022-08-19T16:09:37.743Z,5.85
2022-08-19T16:12:30.367Z,5.28
2022-08-19T16:15:17.869Z,4.97
2022-08-19T16:18:05.500Z,6.63
2022-08-19T16:20:53.058Z,5.75
2022-08-19T16:23:40.598Z,4.95
2022-08-19T16:26:29.554Z,5.53
2022-08-19T16:29:34.089Z,5.50
2022-08-19T16:32:26.511Z,5.47
2022-08-19T16:35:14.015Z,6.05
2022-08-19T16:38:01.358Z,5.80
2022-08-19T16:40:49.220Z,5.95
2022-08-19T16:43:38.990Z,6.20
2022-08-19T16:46:27.584Z,6.03
2022-08-19T16:49:18.027Z,5.50
2022-08-19T16:52:09.970Z,6.30
2022-08-19T16:54:57.123Z,5.85
2022-08-19T16:57:44.393Z,5.57
2022-08-19T17:00:31.686Z,5.93
2022-08-19T17:03:35.644Z,5.70
2022-08-19T17:06:27.719Z,6.18
2022-08-19T17:09:16.151Z,6.18
2022-08-19T17:12:13.161Z,6.00
2022-08-19T17:15:02.244Z,6.38
2022-08-19T17:17:49.471Z,5.80
2022-08-19T17:20:38.855Z,7.07
2022-08-19T17:23:42.456Z,5.85
2022-08-19T17:26:32.319Z,6.10
2022-08-19T17:29:19.609Z,6.93
2022-08-19T17:32:07.768Z,6.43
2022-08-19T17:34:55.248Z,6.00
2022-08-19T17:37:43.746Z,5.97
2022-08-19T17:40:31.234Z,6.07
2022-08-19T17:43:32.487Z,7.05
2022-08-19T17:46:21.658Z,6.78
2022-08-19T17:49:08.736Z,5.88
2022-08-19T17:51:56.412Z,6.68
2022-08-19T17:54:45.624Z,5.70
2022-08-19T17:57:32.709Z,6.57
2022-08-19T18:00:21.430Z,8.27
2022-08-19T18:03:08.822Z,6.60
2022-08-19T18:05:59.588Z,5.85
2022-08-19T18:08:49.113Z,6.80
2022-08-19T18:11:37.638Z,5.93
2022-08-19T18:14:32.825Z,6.47
2022-08-19T18:17:23.180Z,6.45
2022-08-19T18:20:13.887Z,6.60
2022-08-19T18:23:44.901Z,7.07
2022-08-19T18:26:09.544Z,6.90
2022-08-19T18:28:58.535Z,6.88
2022-08-19T18:31:47.982Z,6.72
2022-08-19T18:34:37.599Z,6.60
2022-08-19T18:37:26.719Z,6.43
2022-08-19T18:40:35.583Z,6.47
2022-08-19T18:43:40.372Z,6.30
2022-08-19T18:46:46.101Z,8.00
2022-08-19T18:49:35.348Z,6.68
2022-08-19T18:52:25.630Z,6.45
2022-08-19T18:55:13.477Z,6.82
2022-08-19T18:58:02.725Z,6.75
2022-08-19T19:00:50.402Z,6.38
2022-08-19T19:03:41.374Z,6.38
2022-08-19T19:06:32.181Z,6.70
2022-08-19T19:09:23.737Z,5.90
2022-08-19T19:12:12.777Z,7.07
2022-08-19T19:14:59.938Z,8.05
2022-08-19T19:17:47.385Z,7.22
2022-08-19T19:20:36.514Z,6.30
2022-08-19T19:23:24.714Z,6.85
2022-08-19T19:26:13.928Z,6.50
2022-08-19T19:29:01.228Z,6.50
2022-08-19T19:31:51.387Z,6.03
2022-08-19T19:34:40.825Z,7.35
2022-08-19T19:37:29.470Z,6.25
2022-08-19T19:40:16.691Z,6.80
2022-08-19T19:43:04.882Z,6.88
2022-08-19T19:45:52.232Z,8.00
2022-08-19T19:48:39.747Z,7.05
2022-08-19T19:51:28.038Z,7.78
2022-08-19T19:54:21.737Z,8.98
2022-08-19T19:57:11.260Z,6.78
2022-08-19T19:59:58.381Z,6.85
2022-08-19T20:02:49.796Z,6.95
2022-08-19T20:05:37.242Z,6.60
2022-08-19T20:08:42.059Z,6.85
2022-08-19T20:11:35.409Z,7.53
2022-08-19T20:14:28.347Z,7.07
2022-08-19T20:17:16.012Z,7.28
2022-08-19T20:20:03.191Z,7.30
2022-08-19T20:22:50.263Z,7.60
2022-08-19T20:25:39.663Z,6.25
2022-08-19T20:28:28.754Z,5.90
2022-08-19T20:31:17.806Z,7.10
2022-08-19T20:34:05.665Z,7.80
2022-08-19T20:36:52.885Z,7.30
2022-08-19T20:39:40.508Z,6.70
2022-08-19T20:42:27.740Z,6.97
2022-08-19T20:45:32.461Z,6.60
2022-08-19T20:48:20.643Z,6.80
2022-08-19T20:51:08.351Z,6.97
2022-08-19T20:53:55.482Z,7.18
2022-08-19T20:56:42.787Z,7.00
2022-08-19T20:59:30.186Z,9.10
2022-08-19T21:02:20.075Z,6.97
2022-08-19T21:05:08.880Z,6.72
2022-08-19T21:07:56.270Z,6.85
2022-08-19T21:10:44.672Z,7.30
2022-08-19T21:13:32.726Z,6.28
2022-08-19T21:16:19.871Z,7.10
2022-08-19T21:19:08.608Z,6.72
2022-08-19T21:21:55.899Z,8.13
2022-08-19T21:24:43.485Z,7.72
2022-08-19T21:27:31.029Z,7.78
2022-08-19T21:30:18.455Z,8.00
2022-08-19T21:33:07.035Z,7.90
2022-08-19T21:35:55.961Z,8.05
2022-08-19T21:38:43.167Z,7.53
2022-08-19T21:41:30.715Z,7.38
2022-08-19T21:44:18.164Z,7.60
2022-08-19T21:47:06.147Z,7.28
2022-08-19T21:49:56.597Z,7.78
2022-08-19T21:52:45.327Z,7.47
2022-08-19T21:55:32.545Z,7.15
2022-08-19T21:58:19.855Z,7.68
2022-08-19T22:01:16.182Z,6.88
2022-08-19T22:04:03.330Z,7.72
2022-08-19T22:06:50.720Z,7.95
2022-08-19T22:09:39.626Z,8.05
2022-08-19T22:12:30.682Z,7.57
2022-08-19T22:15:18.946Z,8.43
2022-08-19T22:18:06.593Z,8.13
2022-08-19T22:20:54.730Z,6.88
2022-08-19T22:23:44.368Z,7.70
2022-08-19T22:26:32.883Z,9.10
2022-08-19T22:29:20.298Z,9.25
2022-08-19T22:32:26.588Z,8.35
2022-08-19T22:35:17.726Z,7.63
2022-08-19T22:38:07.646Z,7.80
2022-08-19T22:40:56.452Z,7.43
2022-08-19T22:43:46.746Z,7.07
2022-08-19T22:46:34.259Z,7.50
2022-08-19T22:49:21.777Z,7.03
2022-08-19T22:52:22.037Z,6.97
2022-08-19T22:55:09.972Z,6.38
2022-08-19T22:57:58.877Z,7.80
2022-08-19T23:00:47.900Z,7.20
2022-08-19T23:03:35.379Z,7.78
2022-08-19T23:06:22.333Z,7.13
2022-08-19T23:09:16.614Z,7.10
2022-08-19T23:12:04.463Z,7.28
2022-08-19T23:14:52.040Z,7.07
2022-08-19T23:17:40.580Z,6.95
2022-08-19T23:20:36.334Z,8.20
2022-08-19T23:23:24.805Z,6.40
2022-08-19T23:26:13.475Z,8.00
2022-08-19T23:29:18.203Z,6.82
2022-08-19T23:32:07.084Z,6.70
2022-08-19T23:34:57.847Z,8.07
2022-08-19T23:37:48.071Z,7.07
2022-08-19T23:40:37.105Z,6.57
2022-08-19T23:43:25.428Z,7.22
2022-08-19T23:46:27.287Z,7.05
2022-08-19T23:49:15.077Z,6.43
2022-08-19T23:52:04.994Z,7.78
2022-08-19T23:54:52.186Z,8.15
2022-08-19T23:57:39.485Z,7.03
